createdAt,value
2023-07-08T00:00:57.989Z,99.90
2023-07-08T00:03:48.594Z,99.90
2023-07-08T00:06:29.053Z,99.90
2023-07-08T00:08:56.146Z,99.90
2023-07-08T00:11:27.844Z,99.90
2023-07-08T00:13:55.030Z,99.90
2023-07-08T00:16:25.053Z,99.90
2023-07-08T00:18:54.599Z,99.90
2023-07-08T00:21:22.020Z,99.90
2023-07-08T00:23:52.166Z,99.90
2023-07-08T00:26:32.468Z,99.90
2023-07-08T00:28:59.677Z,99.90
2023-07-08T00:31:27.643Z,99.90
2023-07-08T00:33:57.207Z,99.90
2023-07-08T00:36:28.785Z,99.90
2023-07-08T00:38:59.562Z,99.90
2023-07-08T00:41:32.619Z,99.90
2023-07-08T00:44:01.225Z,99.90
2023-07-08T00:46:28.822Z,99.90
2023-07-08T00:49:08.278Z,99.90
2023-07-08T00:51:37.201Z,99.90
2023-07-08T00:54:04.570Z,99.90
2023-07-08T00:56:50.076Z,99.90
2023-07-08T00:59:30.847Z,99.90
2023-07-08T01:02:05.326Z,99.90
2023-07-08T01:04:41.019Z,99.90
2023-07-08T01:07:11.451Z,99.90
2023-07-08T01:09:47.835Z,99.90
2023-07-08T01:12:19.728Z,99.90
2023-07-08T01:14:49.760Z,99.90
2023-07-08T01:17:17.292Z,99.90
2023-07-08T01:19:47.301Z,99.90
2023-07-08T01:22:14.741Z,99.90
2023-07-08T01:24:46.971Z,99.90
2023-07-08T01:27:18.316Z,99.90
2023-07-08T01:29:45.571Z,99.90
2023-07-08T01:32:15.394Z,99.90
2023-07-08T01:34:42.561Z,99.90
2023-07-08T01:37:13.149Z,99.90
2023-07-08T01:39:40.332Z,99.90
2023-07-08T01:42:07.773Z,99.90
2023-07-08T01:44:38.335Z,99.90
2023-07-08T01:47:16.586Z,99.90
2023-07-08T01:49:46.361Z,99.90
2023-07-08T01:52:19.477Z,99.90
2023-07-08T01:54:46.642Z,99.90
2023-07-08T01:57:14.017Z,99.90
2023-07-08T01:59:41.153Z,99.90
2023-07-08T02:02:08.563Z,99.90
2023-07-08T02:04:35.667Z,99.90
2023-07-08T02:07:03.159Z,99.90
2023-07-08T02:09:30.512Z,99.90
2023-07-08T02:12:02.463Z,99.90
2023-07-08T02:14:32.121Z,99.90
2023-07-08T02:17:01.756Z,99.90
2023-07-08T02:19:28.917Z,99.90
2023-07-08T02:21:56.293Z,99.90
2023-07-08T02:24:25.896Z,99.90
2023-07-08T02:26:53.319Z,99.90
2023-07-08T02:29:22.665Z,99.90
2023-07-08T02:31:52.334Z,99.90
2023-07-08T02:34:19.622Z,99.90
2023-07-08T02:36:47.260Z,99.90
2023-07-08T02:39:14.369Z,99.90
2023-07-08T02:41:41.850Z,99.90
2023-07-08T02:44:09.120Z,99.90
2023-07-08T02:46:36.502Z,99.90
2023-07-08T02:49:03.675Z,99.90
2023-07-08T02:51:33.629Z,99.90
2023-07-08T02:54:00.850Z,99.90
2023-07-08T02:56:28.290Z,99.90
2023-07-08T02:58:57.869Z,99.90
2023-07-08T03:01:25.313Z,99.90
2023-07-08T03:03:52.468Z,99.90
2023-07-08T03:06:19.878Z,99.90
2023-07-08T03:08:46.985Z,99.90
2023-07-08T03:11:16.897Z,99.90
2023-07-08T03:13:46.290Z,99.90
2023-07-08T03:16:14.074Z,99.90
2023-07-08T03:18:44.262Z,99.90
2023-07-08T03:21:15.084Z,99.90
2023-07-08T03:23:44.731Z,99.90
2023-07-08T03:26:26.242Z,99.90
2023-07-08T03:28:53.664Z,99.90
2023-07-08T03:31:21.179Z,99.90
2023-07-08T03:33:48.401Z,99.90
2023-07-08T03:36:20.642Z,99.90
2023-07-08T03:38:47.722Z,99.90
2023-07-08T03:41:17.468Z,99.90
2023-07-08T03:43:44.641Z,99.90
2023-07-08T03:46:18.999Z,99.90
2023-07-08T03:48:46.138Z,99.90
2023-07-08T03:51:22.756Z,99.90
2023-07-08T03:53:49.995Z,99.90
2023-07-08T03:56:17.434Z,99.40
2023-07-08T03:58:44.638Z,99.10
2023-07-08T04:01:17.334Z,99.10
2023-07-08T04:03:45.649Z,98.80
2023-07-08T04:06:13.956Z,98.20
2023-07-08T04:08:41.190Z,97.70
2023-07-08T04:11:12.904Z,97.10
2023-07-08T04:13:40.115Z,96.50
2023-07-08T04:16:09.159Z,95.70
2023-07-08T04:18:37.277Z,95.20
2023-07-08T04:23:34.874Z,94.30
2023-07-08T04:26:02.815Z,93.60
2023-07-08T04:28:32.255Z,93.20
2023-07-08T04:31:04.386Z,92.80
2023-07-08T04:33:33.807Z,92.50
2023-07-08T04:36:01.307Z,92.00
2023-07-08T04:38:28.907Z,91.30
2023-07-08T04:40:58.868Z,90.50
2023-07-08T04:43:33.514Z,90.00
2023-07-08T04:46:01.531Z,89.40
2023-07-08T04:48:28.747Z,87.90
2023-07-08T04:50:56.365Z,86.90
2023-07-08T04:53:26.450Z,85.60
2023-07-08T04:55:59.771Z,84.30
2023-07-08T04:58:26.940Z,83.00
2023-07-08T05:00:54.489Z,82.50
2023-07-08T05:03:21.674Z,81.80
2023-07-08T05:05:49.126Z,80.90
2023-07-08T05:08:18.807Z,80.00
2023-07-08T05:10:48.698Z,78.70
2023-07-08T05:13:15.827Z,76.20
2023-07-08T05:15:43.322Z,74.70
2023-07-08T05:18:15.213Z,74.00
2023-07-08T05:20:50.819Z,73.40
2023-07-08T05:23:17.918Z,72.50
2023-07-08T05:25:45.272Z,71.40
2023-07-08T05:28:14.956Z,70.00
2023-07-08T05:30:42.490Z,69.40
2023-07-08T05:33:10.499Z,68.50
2023-07-08T05:35:40.151Z,66.70
2023-07-08T05:38:07.290Z,65.90
2023-07-08T05:40:34.664Z,63.60
2023-07-08T05:43:01.750Z,61.70
2023-07-08T05:45:29.405Z,59.90
2023-07-08T05:47:56.719Z,57.80
2023-07-08T05:50:24.298Z,55.10
2023-07-08T05:52:51.467Z,52.40
2023-07-08T05:55:18.922Z,49.60
2023-07-08T05:57:46.052Z,47.10
2023-07-08T06:00:18.739Z,44.70
2023-07-08T06:02:53.439Z,43.40
2023-07-08T06:05:21.005Z,42.00
2023-07-08T06:07:48.238Z,41.00
2023-07-08T06:10:15.758Z,39.70
2023-07-08T06:12:42.834Z,39.20
2023-07-08T06:15:10.861Z,37.90
2023-07-08T06:17:38.168Z,37.10
2023-07-08T06:20:06.353Z,36.60
2023-07-08T06:25:06.592Z,35.20
2023-07-08T06:27:33.870Z,34.60
2023-07-08T06:30:01.276Z,34.20
2023-07-08T06:32:28.634Z,34.00
2023-07-08T06:34:56.192Z,33.10
2023-07-08T06:37:23.347Z,32.90
2023-07-08T06:39:53.168Z,33.00
2023-07-08T06:42:20.310Z,32.10
2023-07-08T06:44:47.749Z,32.10
2023-07-08T06:47:17.163Z,31.90
2023-07-08T06:49:44.798Z,31.60
2023-07-08T06:52:11.901Z,31.70
2023-07-08T06:54:41.594Z,31.00
2023-07-08T06:57:08.726Z,31.10
2023-07-08T06:59:38.892Z,31.00
2023-07-08T07:02:08.953Z,30.80
2023-07-08T07:04:36.479Z,30.70
2023-07-08T07:07:03.770Z,30.70
2023-07-08T07:09:34.868Z,30.70
2023-07-08T07:12:02.623Z,30.50
2023-07-08T07:17:08.207Z,30.10
2023-07-08T07:19:36.706Z,30.00
2023-07-08T07:22:06.432Z,30.00
2023-07-08T07:24:39.051Z,30.00
2023-07-08T07:27:06.477Z,29.80
2023-07-08T07:29:45.248Z,29.50
2023-07-08T07:32:13.790Z,29.40
2023-07-08T07:34:41.533Z,29.30
2023-07-08T07:37:14.136Z,29.30
2023-07-08T07:39:42.624Z,29.30
2023-07-08T07:42:10.944Z,28.90
2023-07-08T07:44:40.924Z,28.80
2023-07-08T07:47:09.695Z,28.90
2023-07-08T07:49:37.067Z,28.70
2023-07-08T07:52:05.042Z,28.50
2023-07-08T07:54:34.906Z,28.50
2023-07-08T07:57:01.983Z,28.50
2023-07-08T07:59:29.494Z,28.50
2023-07-08T08:01:59.224Z,28.60
2023-07-08T08:04:26.731Z,28.30
2023-07-08T08:06:53.895Z,28.40
2023-07-08T08:09:21.360Z,28.50
2023-07-08T08:11:50.901Z,28.20
2023-07-08T08:14:18.688Z,28.00
2023-07-08T08:16:45.995Z,28.00
2023-07-08T08:19:13.578Z,28.10
2023-07-08T08:21:40.717Z,28.20
2023-07-08T08:24:08.169Z,28.00
2023-07-08T08:26:35.350Z,28.00
2023-07-08T08:29:03.256Z,27.90
2023-07-08T08:31:30.430Z,27.70
2023-07-08T08:33:58.183Z,28.00
2023-07-08T08:36:28.179Z,27.80
2023-07-08T08:38:55.792Z,28.00
2023-07-08T08:41:33.979Z,27.90
2023-07-08T08:44:03.794Z,27.90
2023-07-08T08:46:35.680Z,28.10
2023-07-08T08:49:33.590Z,28.20
2023-07-08T08:52:03.533Z,28.30
2023-07-08T08:54:31.707Z,28.60
2023-07-08T08:57:25.785Z,29.30
2023-07-08T08:59:58.328Z,29.50
2023-07-08T09:02:35.738Z,30.00
2023-07-08T09:05:12.610Z,30.90
2023-07-08T09:08:01.522Z,31.60
2023-07-08T09:10:57.026Z,32.40
2023-07-08T09:13:31.205Z,32.30
2023-07-08T09:16:21.307Z,32.80
2023-07-08T09:18:54.258Z,33.50
2023-07-08T09:21:27.936Z,35.80
2023-07-08T09:24:00.768Z,36.10
2023-07-08T09:26:30.434Z,37.00
2023-07-08T09:29:01.981Z,37.40
2023-07-08T09:31:31.230Z,36.90
2023-07-08T09:34:13.797Z,37.80
2023-07-08T09:36:48.356Z,38.60
2023-07-08T09:39:22.153Z,39.20
2023-07-08T09:41:51.024Z,39.50
2023-07-08T09:44:27.787Z,39.10
2023-07-08T09:46:59.161Z,39.00
2023-07-08T09:49:36.319Z,38.70
2023-07-08T09:52:05.516Z,39.40
2023-07-08T09:54:32.855Z,39.10
2023-07-08T09:57:05.212Z,39.40
2023-07-08T09:59:33.900Z,40.10
2023-07-08T10:02:04.003Z,40.40
2023-07-08T10:04:32.010Z,40.40
2023-07-08T10:07:01.297Z,40.30
2023-07-08T10:09:28.474Z,39.70
2023-07-08T10:12:01.884Z,39.40
2023-07-08T10:14:43.630Z,39.20
2023-07-08T10:17:17.855Z,39.60
2023-07-08T10:19:47.335Z,39.10
2023-07-08T10:22:31.745Z,39.60
2023-07-08T10:25:24.495Z,39.10
2023-07-08T10:28:33.716Z,39.20
2023-07-08T10:31:29.653Z,39.20
2023-07-08T10:34:13.235Z,39.90
2023-07-08T10:37:01.498Z,40.30
2023-07-08T10:39:55.450Z,40.30
2023-07-08T10:42:34.594Z,39.30
2023-07-08T10:45:04.958Z,40.00
2023-07-08T10:47:54.937Z,39.70
2023-07-08T10:50:31.078Z,39.50
2023-07-08T10:53:24.790Z,40.50
2023-07-08T10:55:55.689Z,39.40
2023-07-08T10:58:33.787Z,38.60
2023-07-08T11:01:19.237Z,39.30
2023-07-08T11:04:23.808Z,40.20
2023-07-08T11:06:54.313Z,41.30
2023-07-08T11:09:54.561Z,43.20
2023-07-08T11:12:33.579Z,43.60
2023-07-08T11:15:29.673Z,42.50
2023-07-08T11:17:57.156Z,42.50
2023-07-08T11:20:55.713Z,41.40
2023-07-08T11:23:47.097Z,42.00
2023-07-08T11:26:45.200Z,41.90
2023-07-08T11:29:36.913Z,41.20
2023-07-08T11:32:10.104Z,42.70
2023-07-08T11:34:39.220Z,42.60
2023-07-08T11:37:07.110Z,42.30
2023-07-08T11:39:39.661Z,42.50
2023-07-08T11:42:12.659Z,42.70
2023-07-08T11:44:44.828Z,42.70
2023-07-08T11:47:18.961Z,41.70
2023-07-08T11:49:49.289Z,41.80
2023-07-08T11:52:23.855Z,41.60
2023-07-08T11:55:00.304Z,42.60
2023-07-08T11:57:38.348Z,46.40
2023-07-08T12:00:18.008Z,46.20
2023-07-08T12:03:20.024Z,44.60
2023-07-08T12:05:47.610Z,42.90
2023-07-08T12:08:18.563Z,42.40
2023-07-08T12:10:58.027Z,42.30
2023-07-08T12:13:30.773Z,41.90
2023-07-08T12:15:58.291Z,41.90
2023-07-08T12:18:29.102Z,42.80
2023-07-08T12:21:02.945Z,41.00
2023-07-08T12:23:30.624Z,42.60
2023-07-08T12:25:58.943Z,43.80
2023-07-08T12:28:27.096Z,43.90
2023-07-08T12:30:56.828Z,43.80
2023-07-08T12:33:34.248Z,43.90
2023-07-08T12:36:03.120Z,43.80
2023-07-08T12:38:42.530Z,45.30
2023-07-08T12:41:13.008Z,44.70
2023-07-08T12:43:40.151Z,44.00
2023-07-08T12:46:11.604Z,44.30
2023-07-08T12:48:40.493Z,44.10
2023-07-08T12:51:12.978Z,45.60
2023-07-08T12:53:43.568Z,44.70
2023-07-08T12:56:11.924Z,45.30
2023-07-08T12:58:43.535Z,44.70
2023-07-08T13:01:18.748Z,44.00
2023-07-08T13:03:50.110Z,44.50
2023-07-08T13:06:24.565Z,45.10
2023-07-08T13:08:55.024Z,46.00
2023-07-08T13:11:23.290Z,46.00
2023-07-08T13:13:57.387Z,45.80
2023-07-08T13:16:30.865Z,45.10
2023-07-08T13:18:58.253Z,46.00
2023-07-08T13:21:29.181Z,46.10
2023-07-08T13:23:58.806Z,48.00
2023-07-08T13:26:31.697Z,46.90
2023-07-08T13:29:12.462Z,45.60
2023-07-08T13:31:40.781Z,44.70
2023-07-08T13:34:10.825Z,46.90
2023-07-08T13:36:44.181Z,44.70
2023-07-08T13:39:29.038Z,47.30
2023-07-08T13:42:00.088Z,44.80
2023-07-08T13:44:28.385Z,45.20
2023-07-08T13:46:58.120Z,47.00
2023-07-08T13:49:39.119Z,45.20
2023-07-08T13:52:16.275Z,45.90
2023-07-08T13:54:51.593Z,44.90
2023-07-08T13:57:22.586Z,45.40
2023-07-08T13:59:50.004Z,45.50
2023-07-08T14:02:27.411Z,44.30
2023-07-08T14:04:55.849Z,46.40
2023-07-08T14:07:29.038Z,56.20
2023-07-08T14:09:56.609Z,57.50
2023-07-08T14:12:26.778Z,55.80
2023-07-08T14:14:53.865Z,58.40
2023-07-08T14:17:26.145Z,54.60
2023-07-08T14:19:53.373Z,59.50
2023-07-08T14:22:20.753Z,57.10
2023-07-08T14:24:50.469Z,53.60
2023-07-08T14:27:17.971Z,54.00
2023-07-08T14:29:49.266Z,56.50
2023-07-08T14:32:28.129Z,60.00
2023-07-08T14:35:16.113Z,54.00
2023-07-08T14:37:43.972Z,55.30
2023-07-08T14:40:17.174Z,54.30
2023-07-08T14:42:44.625Z,53.50
2023-07-08T14:45:14.482Z,55.20
2023-07-08T14:47:42.004Z,53.50
2023-07-08T14:50:16.432Z,53.10
2023-07-08T14:52:44.006Z,51.80
2023-07-08T14:55:11.322Z,53.90
2023-07-08T14:57:46.281Z,51.60
2023-07-08T15:00:15.671Z,51.60
2023-07-08T15:02:48.337Z,52.10
2023-07-08T15:05:22.809Z,54.20
2023-07-08T15:07:53.155Z,53.20
2023-07-08T15:10:22.140Z,53.00
2023-07-08T15:12:50.343Z,51.80
2023-07-08T15:15:33.627Z,49.30
2023-07-08T15:18:02.175Z,50.40
2023-07-08T15:20:29.612Z,50.00
2023-07-08T15:22:57.108Z,50.40
2023-07-08T15:25:24.887Z,50.00
2023-07-08T15:27:58.311Z,50.00
2023-07-08T15:30:27.690Z,48.90
2023-07-08T15:32:55.776Z,50.40
2023-07-08T15:35:28.446Z,48.80
2023-07-08T15:37:58.500Z,49.20
2023-07-08T15:40:35.111Z,50.00
2023-07-08T15:43:04.277Z,49.20
2023-07-08T15:45:36.820Z,49.50
2023-07-08T15:48:05.244Z,48.60
2023-07-08T15:50:34.664Z,50.30
2023-07-08T15:53:04.615Z,49.80
2023-07-08T15:55:34.749Z,47.90
2023-07-08T15:58:30.642Z,47.50
2023-07-08T16:01:01.840Z,46.80
2023-07-08T16:03:32.305Z,47.60
2023-07-08T16:06:01.908Z,47.80
2023-07-08T16:08:29.389Z,47.90
2023-07-08T16:11:12.741Z,48.20
2023-07-08T16:13:42.574Z,46.80
2023-07-08T16:16:12.205Z,46.60
2023-07-08T16:18:40.603Z,47.50
2023-07-08T16:21:08.460Z,46.60
2023-07-08T16:23:35.983Z,46.80
2023-07-08T16:26:05.904Z,47.40
2023-07-08T16:28:46.144Z,46.90
2023-07-08T16:31:22.116Z,46.40
2023-07-08T16:33:52.579Z,46.80
2023-07-08T16:36:26.302Z,47.50
2023-07-08T16:38:56.830Z,47.10
2023-07-08T16:41:33.098Z,48.00
2023-07-08T16:44:00.545Z,46.60
2023-07-08T16:46:27.837Z,47.80
2023-07-08T16:48:57.605Z,47.10
2023-07-08T16:51:27.921Z,47.60
2023-07-08T16:54:10.399Z,47.60
2023-07-08T16:56:39.251Z,47.60
2023-07-08T16:59:08.511Z,47.30
2023-07-08T17:01:36.138Z,46.50
2023-07-08T17:04:04.016Z,46.70
2023-07-08T17:06:31.291Z,47.20
2023-07-08T17:08:58.804Z,46.90
2023-07-08T17:11:25.950Z,46.50
2023-07-08T17:13:55.891Z,47.40
2023-07-08T17:16:29.863Z,47.10
2023-07-08T17:18:58.582Z,46.50
2023-07-08T17:21:25.805Z,47.40
2023-07-08T17:23:56.036Z,46.00
2023-07-08T17:26:23.202Z,45.50
2023-07-08T17:28:52.863Z,46.30
2023-07-08T17:33:59.928Z,47.10
2023-07-08T17:36:32.877Z,47.10
2023-07-08T17:39:00.719Z,47.00
2023-07-08T17:41:30.303Z,48.10
2023-07-08T17:44:00.382Z,47.80
2023-07-08T17:46:29.172Z,47.60
2023-07-08T17:48:57.035Z,48.70
2023-07-08T17:51:26.379Z,48.30
2023-07-08T17:53:56.540Z,47.60
2023-07-08T17:56:31.216Z,48.20
2023-07-08T17:59:02.392Z,48.40
2023-07-08T18:01:32.298Z,48.10
2023-07-08T18:03:59.830Z,49.10
2023-07-08T18:06:29.658Z,48.60
2023-07-08T18:08:59.747Z,48.80
2023-07-08T18:11:27.123Z,48.90
2023-07-08T18:13:55.263Z,48.20
2023-07-08T18:16:26.091Z,49.70
2023-07-08T18:18:56.139Z,49.10
2023-07-08T18:21:25.296Z,48.80
2023-07-08T18:23:54.347Z,49.30
2023-07-08T18:26:25.428Z,49.60
2023-07-08T18:28:52.903Z,50.10
2023-07-08T18:31:36.066Z,50.40
2023-07-08T18:34:06.195Z,51.00
2023-07-08T18:36:34.538Z,50.90
2023-07-08T18:39:02.044Z,50.50
2023-07-08T18:41:40.688Z,50.90
2023-07-08T18:44:26.710Z,51.30
2023-07-08T18:46:53.937Z,51.50
2023-07-08T18:49:22.437Z,52.00
2023-07-08T18:51:52.272Z,52.80
2023-07-08T18:54:22.948Z,53.50
2023-07-08T18:56:52.703Z,54.10
2023-07-08T18:59:20.283Z,54.80
2023-07-08T19:01:49.988Z,53.60
2023-07-08T19:04:27.609Z,54.20
2023-07-08T19:06:57.847Z,54.80
2023-07-08T19:09:25.656Z,54.80
2023-07-08T19:11:55.400Z,55.20
2023-07-08T19:14:22.843Z,55.40
2023-07-08T19:16:52.293Z,55.20
2023-07-08T19:19:19.955Z,55.60
2023-07-08T19:21:54.271Z,56.10
2023-07-08T19:24:32.597Z,57.40
2023-07-08T19:27:05.158Z,57.80
2023-07-08T19:29:32.954Z,58.90
2023-07-08T19:32:00.234Z,59.40
2023-07-08T19:34:27.788Z,60.00
2023-07-08T19:36:57.456Z,60.50
2023-07-08T19:39:25.158Z,61.30
2023-07-08T19:41:54.970Z,61.10
2023-07-08T19:44:26.544Z,61.00
2023-07-08T19:46:53.876Z,60.00
2023-07-08T19:49:23.871Z,60.50
2023-07-08T19:51:51.139Z,60.80
2023-07-08T19:54:23.055Z,61.20
2023-07-08T19:56:52.554Z,61.70
2023-07-08T19:59:22.256Z,62.50
2023-07-08T20:01:49.618Z,63.10
2023-07-08T20:04:17.413Z,62.80
2023-07-08T20:06:45.432Z,63.50
2023-07-08T20:09:15.795Z,64.20
2023-07-08T20:11:46.043Z,64.40
2023-07-08T20:14:14.300Z,64.80
2023-07-08T20:16:44.321Z,64.40
2023-07-08T20:19:29.948Z,65.30
2023-07-08T20:22:00.888Z,65.80
2023-07-08T20:24:29.016Z,65.70
2023-07-08T20:26:56.287Z,65.50
2023-07-08T20:29:26.162Z,66.20
2023-07-08T20:31:54.122Z,66.60
2023-07-08T20:34:22.163Z,66.80
2023-07-08T20:36:49.389Z,66.80
2023-07-08T20:39:22.133Z,67.50
2023-07-08T20:41:49.710Z,68.20
2023-07-08T20:44:17.176Z,68.30
2023-07-08T20:46:48.973Z,68.20
2023-07-08T20:49:17.157Z,68.60
2023-07-08T20:51:44.306Z,69.00
2023-07-08T20:54:14.933Z,69.10
2023-07-08T20:56:42.915Z,69.00
2023-07-08T20:59:17.452Z,69.60
2023-07-08T21:01:44.691Z,68.80
2023-07-08T21:04:12.187Z,68.70
2023-07-08T21:06:39.605Z,68.70
2023-07-08T21:09:07.193Z,69.30
2023-07-08T21:11:37.560Z,68.80
2023-07-08T21:14:05.057Z,69.70
2023-07-08T21:16:32.644Z,69.70
2023-07-08T21:19:00.316Z,70.10
2023-07-08T21:21:27.476Z,70.20
2023-07-08T21:23:55.025Z,70.60
2023-07-08T21:26:32.187Z,70.90
2023-07-08T21:29:03.996Z,71.40
2023-07-08T21:31:33.681Z,71.60
2023-07-08T21:34:05.910Z,72.20
2023-07-08T21:36:36.288Z,72.70
2023-07-08T21:39:31.361Z,73.00
2023-07-08T21:41:58.943Z,73.70
2023-07-08T21:44:26.560Z,74.00
2023-07-08T21:46:55.881Z,74.40
2023-07-08T21:49:23.744Z,74.90
2023-07-08T21:51:53.466Z,75.30
2023-07-08T21:54:20.904Z,75.50
2023-07-08T21:56:50.595Z,75.70
2023-07-08T21:59:20.344Z,75.60
2023-07-08T22:01:50.131Z,76.40
2023-07-08T22:04:20.071Z,76.10
2023-07-08T22:06:49.660Z,76.40
2023-07-08T22:09:17.141Z,76.80
2023-07-08T22:11:46.824Z,77.50
2023-07-08T22:14:14.383Z,77.60
2023-07-08T22:16:41.662Z,78.10
2023-07-08T22:19:11.701Z,78.00
2023-07-08T22:21:39.042Z,78.30
2023-07-08T22:24:10.752Z,78.60
2023-07-08T22:26:42.551Z,79.30
2023-07-08T22:29:10.507Z,79.80
2023-07-08T22:31:40.921Z,80.10
2023-07-08T22:34:16.695Z,80.80
2023-07-08T22:36:44.224Z,81.80
2023-07-08T22:39:12.339Z,82.30
2023-07-08T22:41:46.170Z,82.80
2023-07-08T22:44:15.263Z,82.50
2023-07-08T22:46:43.406Z,81.90
2023-07-08T22:49:13.274Z,81.50
2023-07-08T22:51:44.960Z,81.40
2023-07-08T22:54:15.479Z,81.80
2023-07-08T22:56:42.920Z,81.80
2023-07-08T22:59:12.657Z,81.60
2023-07-08T23:01:39.814Z,81.80
2023-07-08T23:04:07.441Z,82.00
2023-07-08T23:06:37.234Z,82.50
2023-07-08T23:09:04.786Z,82.90
2023-07-08T23:11:31.986Z,83.50
2023-07-08T23:13:59.570Z,84.20
2023-07-08T23:16:32.270Z,85.90
2023-07-08T23:19:01.118Z,87.00
2023-07-08T23:21:28.684Z,88.90
2023-07-08T23:23:58.717Z,90.00
2023-07-08T23:26:33.083Z,90.20
2023-07-08T23:29:04.237Z,90.00
2023-07-08T23:31:33.365Z,90.30
2023-07-08T23:34:01.192Z,90.40
2023-07-08T23:36:35.003Z,89.90
2023-07-08T23:39:15.285Z,90.20
2023-07-08T23:41:44.832Z,90.10
2023-07-08T23:44:14.224Z,89.80
2023-07-08T23:46:46.485Z,89.80
2023-07-08T23:49:28.204Z,89.50
2023-07-08T23:51:59.174Z,89.60
2023-07-08T23:54:29.164Z,89.60
2023-07-08T23:56:58.575Z,89.60
2023-07-08T23:59:30.225Z,89.80
